createdAt,value
2024-02-10T00:00:01.388Z,8.13
2024-02-10T00:02:28.902Z,9.50
2024-02-10T00:04:57.523Z,10.70
2024-02-10T00:07:25.033Z,13.32
2024-02-10T00:09:52.386Z,10.48
2024-02-10T00:12:22.726Z,9.93
2024-02-10T00:14:50.077Z,6.50
2024-02-10T00:17:17.581Z,8.38
2024-02-10T00:19:49.571Z,9.63
2024-02-10T00:22:18.313Z,8.70
2024-02-10T00:24:46.235Z,8.50
2024-02-10T00:27:18.060Z,8.25
2024-02-10T00:29:46.396Z,9.43
2024-02-10T00:32:14.588Z,8.00
2024-02-10T00:34:43.127Z,7.78
2024-02-10T00:37:11.093Z,11.88
2024-02-10T00:39:38.524Z,9.25
2024-02-10T00:42:05.953Z,7.32
2024-02-10T00:44:35.123Z,12.52
2024-02-10T00:47:06.009Z,7.65
2024-02-10T00:49:34.515Z,10.00
2024-02-10T00:52:01.974Z,9.07
2024-02-10T00:54:31.086Z,11.80
2024-02-10T00:56:58.764Z,8.90
2024-02-10T00:59:26.207Z,10.50
2024-02-10T01:01:53.763Z,8.93
2024-02-10T01:04:21.871Z,7.35
2024-02-10T01:06:50.045Z,9.15
2024-02-10T01:09:17.471Z,7.85
2024-02-10T01:11:45.311Z,11.12
2024-02-10T01:14:13.925Z,6.87
2024-02-10T01:16:44.642Z,8.30
2024-02-10T01:19:13.001Z,9.43
2024-02-10T01:21:41.467Z,5.78
2024-02-10T01:24:09.931Z,8.90
2024-02-10T01:26:37.592Z,7.20
2024-02-10T01:29:09.610Z,9.77
2024-02-10T01:31:37.136Z,8.90
2024-02-10T01:34:05.002Z,8.32
2024-02-10T01:36:35.176Z,5.05
2024-02-10T01:39:02.602Z,8.30
2024-02-10T01:41:30.284Z,6.45
2024-02-10T01:43:59.782Z,8.80
2024-02-10T01:46:28.116Z,8.27
2024-02-10T01:48:57.016Z,8.23
2024-02-10T01:51:25.101Z,9.52
2024-02-10T01:53:53.751Z,6.00
2024-02-10T01:56:21.610Z,7.50
2024-02-10T01:58:49.673Z,10.75
2024-02-10T02:01:17.533Z,6.93
2024-02-10T02:03:47.731Z,7.55
2024-02-10T02:06:19.164Z,6.10
2024-02-10T02:08:49.266Z,5.60
2024-02-10T02:11:17.125Z,7.07
2024-02-10T02:13:45.241Z,6.03
2024-02-10T02:16:13.686Z,10.32
2024-02-10T02:18:45.310Z,4.45
2024-02-10T02:21:13.802Z,6.95
2024-02-10T02:23:41.721Z,9.38
2024-02-10T02:26:09.188Z,7.65
2024-02-10T02:28:39.077Z,11.12
2024-02-10T02:31:06.724Z,8.02
2024-02-10T02:33:37.186Z,8.82
2024-02-10T02:36:04.992Z,4.20
2024-02-10T02:38:32.398Z,6.53
2024-02-10T02:40:59.960Z,6.65
2024-02-10T02:43:27.798Z,8.93
2024-02-10T02:45:55.188Z,5.22
2024-02-10T02:48:22.749Z,6.62
2024-02-10T02:50:51.056Z,6.40
2024-02-10T02:53:18.385Z,6.50
2024-02-10T02:55:47.219Z,5.30
2024-02-10T02:58:15.581Z,11.10
2024-02-10T03:00:43.283Z,7.45
2024-02-10T03:03:11.163Z,6.43
2024-02-10T03:05:39.187Z,8.48
2024-02-10T03:08:08.400Z,5.72
2024-02-10T03:10:36.118Z,4.70
2024-02-10T03:13:04.284Z,4.72
2024-02-10T03:15:39.481Z,6.47
2024-02-10T03:18:09.531Z,6.55
2024-02-10T03:20:37.434Z,5.43
2024-02-10T03:23:13.792Z,4.47
2024-02-10T03:25:44.020Z,4.82
2024-02-10T03:28:11.402Z,10.75
2024-02-10T03:30:38.772Z,8.05
2024-02-10T03:33:06.525Z,5.87
2024-02-10T03:35:34.750Z,6.37
2024-02-10T03:38:02.484Z,6.45
2024-02-10T03:40:30.359Z,5.90
2024-02-10T03:42:57.912Z,7.70
2024-02-10T03:45:31.520Z,8.93
2024-02-10T03:48:06.729Z,8.02
2024-02-10T03:50:34.289Z,6.35
2024-02-10T03:53:01.965Z,5.97
2024-02-10T03:55:31.749Z,6.80
2024-02-10T03:58:00.492Z,6.57
2024-02-10T04:00:29.655Z,9.93
2024-02-10T04:02:57.432Z,6.82
2024-02-10T04:05:29.666Z,8.02
2024-02-10T04:07:57.403Z,7.05
2024-02-10T04:10:24.824Z,5.57
2024-02-10T04:12:52.298Z,7.62
2024-02-10T04:15:22.123Z,9.02
2024-02-10T04:17:54.524Z,11.68
2024-02-10T04:20:24.116Z,8.52
2024-02-10T04:22:51.703Z,6.70
2024-02-10T04:25:19.718Z,6.10
2024-02-10T04:27:47.405Z,6.68
2024-02-10T04:30:14.864Z,6.62
2024-02-10T04:32:51.693Z,6.22
2024-02-10T04:35:21.078Z,8.82
2024-02-10T04:37:53.503Z,6.80
2024-02-10T04:40:25.730Z,9.10
2024-02-10T04:42:56.501Z,5.97
2024-02-10T04:45:33.512Z,6.75
2024-02-10T04:48:02.626Z,11.18
2024-02-10T04:50:30.487Z,6.22
2024-02-10T04:52:58.890Z,9.05
2024-02-10T04:55:26.758Z,8.07
2024-02-10T04:57:55.762Z,7.62
2024-02-10T05:00:24.197Z,8.88
2024-02-10T05:02:52.898Z,5.65
2024-02-10T05:05:21.337Z,5.35
2024-02-10T05:07:50.366Z,10.85
2024-02-10T05:10:20.075Z,8.45
2024-02-10T05:12:49.047Z,8.43
2024-02-10T05:15:22.176Z,5.55
2024-02-10T05:17:51.321Z,8.35
2024-02-10T05:20:21.443Z,5.25
2024-02-10T05:22:51.324Z,5.68
2024-02-10T05:25:21.212Z,9.75
2024-02-10T05:27:49.207Z,6.65
2024-02-10T05:30:26.026Z,8.32
2024-02-10T05:32:57.989Z,5.55
2024-02-10T05:35:27.668Z,7.20
2024-02-10T05:37:57.678Z,4.22
2024-02-10T05:40:27.054Z,4.72
2024-02-10T05:43:00.188Z,6.20
2024-02-10T05:45:29.322Z,8.15
2024-02-10T05:47:57.156Z,6.53
2024-02-10T05:50:25.705Z,9.00
2024-02-10T05:52:54.583Z,7.50
2024-02-10T05:55:28.147Z,6.12
2024-02-10T05:57:56.668Z,7.87
2024-02-10T06:00:24.828Z,10.70
2024-02-10T06:02:52.921Z,9.52
2024-02-10T06:05:20.390Z,10.48
2024-02-10T06:07:49.763Z,9.68
2024-02-10T06:10:17.951Z,8.65
2024-02-10T06:12:45.861Z,8.05
2024-02-10T06:15:14.386Z,8.68
2024-02-10T06:17:44.778Z,11.55
2024-02-10T06:20:16.150Z,7.87
2024-02-10T06:22:48.928Z,7.72
2024-02-10T06:27:55.842Z,7.80
2024-02-10T06:30:25.669Z,8.50
2024-02-10T06:32:53.136Z,7.57
2024-02-10T06:35:21.199Z,8.23
2024-02-10T06:37:50.584Z,8.52
2024-02-10T06:40:19.242Z,7.72
2024-02-10T06:42:51.654Z,6.47
2024-02-10T06:45:23.604Z,7.32
2024-02-10T06:50:25.711Z,7.45
2024-02-10T06:52:54.508Z,8.98
2024-02-10T06:55:25.075Z,11.95
2024-02-10T06:57:54.489Z,10.57
2024-02-10T07:00:23.306Z,9.10
2024-02-10T07:02:50.751Z,11.10
2024-02-10T07:05:19.592Z,9.73
2024-02-10T07:07:51.115Z,11.65
2024-02-10T07:10:20.718Z,9.40
2024-02-10T07:12:56.501Z,8.23
2024-02-10T07:15:26.550Z,10.30
2024-02-10T07:17:54.877Z,9.40
2024-02-10T07:20:26.824Z,10.13
2024-02-10T07:25:29.657Z,10.77
2024-02-10T07:28:04.500Z,7.47
2024-02-10T07:30:33.371Z,8.50
2024-02-10T07:33:11.331Z,12.13
2024-02-10T07:35:40.632Z,19.40
2024-02-10T07:38:09.990Z,15.68
2024-02-10T07:40:38.187Z,10.88
2024-02-10T07:43:07.652Z,11.23
2024-02-10T07:45:35.568Z,6.37
2024-02-10T07:48:05.183Z,9.43
2024-02-10T07:50:32.872Z,16.92
2024-02-10T07:53:01.414Z,9.00
2024-02-10T07:55:29.322Z,10.38
2024-02-10T07:58:00.573Z,12.30
2024-02-10T08:00:28.846Z,6.05
2024-02-10T08:02:56.535Z,5.82
2024-02-10T08:05:23.917Z,5.10
2024-02-10T08:07:51.543Z,9.48
2024-02-10T08:10:20.653Z,6.65
2024-02-10T08:12:51.456Z,7.65
2024-02-10T08:15:19.474Z,5.80
2024-02-10T08:17:46.982Z,5.30
2024-02-10T08:20:15.022Z,5.07
2024-02-10T08:22:42.962Z,5.40
2024-02-10T08:25:11.018Z,4.72
2024-02-10T08:27:41.980Z,7.20
2024-02-10T08:30:19.086Z,6.12
2024-02-10T08:32:46.775Z,12.52
2024-02-10T08:35:14.666Z,4.82
2024-02-10T08:37:43.480Z,4.72
2024-02-10T08:40:11.643Z,4.65
2024-02-10T08:42:39.460Z,4.45
2024-02-10T08:45:07.256Z,6.40
2024-02-10T08:47:34.699Z,4.07
2024-02-10T08:50:02.981Z,7.80
2024-02-10T08:52:31.942Z,8.93
2024-02-10T08:55:00.373Z,9.15
2024-02-10T08:57:28.068Z,4.37
2024-02-10T08:59:56.261Z,7.50
2024-02-10T09:02:24.503Z,6.28
2024-02-10T09:04:54.853Z,3.80
2024-02-10T09:07:22.580Z,7.80
2024-02-10T09:09:50.155Z,6.10
2024-02-10T09:12:18.527Z,5.05
2024-02-10T09:14:47.587Z,5.25
2024-02-10T09:17:15.047Z,9.68
2024-02-10T09:19:43.059Z,4.65
2024-02-10T09:22:11.325Z,3.97
2024-02-10T09:24:41.025Z,4.15
2024-02-10T09:27:11.813Z,6.07
2024-02-10T09:29:39.458Z,6.65
2024-02-10T09:32:07.344Z,3.55
2024-02-10T09:34:35.419Z,5.20
2024-02-10T09:37:03.051Z,4.45
2024-02-10T09:39:30.936Z,4.85
2024-02-10T09:42:06.709Z,5.05
2024-02-10T09:44:38.543Z,7.45
2024-02-10T09:47:08.876Z,5.20
2024-02-10T09:49:39.006Z,5.15
2024-02-10T09:52:06.779Z,5.75
2024-02-10T09:54:34.148Z,5.32
2024-02-10T09:57:04.059Z,5.03
2024-02-10T09:59:33.217Z,5.35
2024-02-10T10:02:01.097Z,6.80
2024-02-10T10:04:28.954Z,6.57
2024-02-10T10:06:57.267Z,5.18
2024-02-10T10:09:24.691Z,7.75
2024-02-10T10:11:52.906Z,6.57
2024-02-10T10:14:21.493Z,5.65
2024-02-10T10:17:01.377Z,6.53
2024-02-10T10:19:30.126Z,13.90
2024-02-10T10:21:58.842Z,8.43
2024-02-10T10:24:27.872Z,7.72
2024-02-10T10:26:56.620Z,9.43
2024-02-10T10:29:24.239Z,5.57
2024-02-10T10:31:54.464Z,6.22
2024-02-10T10:34:24.352Z,6.62
2024-02-10T10:36:54.679Z,6.07
2024-02-10T10:39:23.296Z,6.97
2024-02-10T10:41:53.000Z,4.07
2024-02-10T10:44:22.407Z,6.00
2024-02-10T10:46:53.423Z,6.80
2024-02-10T10:49:21.553Z,9.57
2024-02-10T10:52:03.527Z,7.68
2024-02-10T10:54:36.308Z,5.07
2024-02-10T10:59:36.497Z,5.07
2024-02-10T11:02:07.040Z,3.83
2024-02-10T11:04:36.749Z,6.35
2024-02-10T11:07:12.322Z,8.45
2024-02-10T11:09:49.072Z,4.40
2024-02-10T11:12:16.584Z,7.07
2024-02-10T11:14:54.691Z,5.97
2024-02-10T11:17:22.388Z,7.90
2024-02-10T11:20:04.811Z,5.68
2024-02-10T11:22:36.627Z,5.85
2024-02-10T11:27:35.909Z,6.05
2024-02-10T11:30:04.174Z,7.45
2024-02-10T11:32:33.643Z,5.62
2024-02-10T11:35:01.502Z,5.75
2024-02-10T11:37:31.293Z,6.60
2024-02-10T11:39:59.192Z,6.70
2024-02-10T11:45:02.339Z,6.30
2024-02-10T11:47:31.997Z,4.72
2024-02-10T11:50:00.840Z,4.90
2024-02-10T11:52:30.338Z,9.05
2024-02-10T11:54:57.982Z,17.08
2024-02-10T11:57:27.822Z,5.07
2024-02-10T11:59:56.976Z,6.00
2024-02-10T12:02:25.431Z,5.35
2024-02-10T12:04:53.428Z,6.37
2024-02-10T12:07:21.059Z,5.62
2024-02-10T12:09:48.899Z,9.73
2024-02-10T12:12:17.223Z,10.23
2024-02-10T12:14:46.002Z,11.80
2024-02-10T12:17:17.263Z,4.03
2024-02-10T12:19:46.894Z,9.95
2024-02-10T12:22:14.285Z,5.05
2024-02-10T12:24:43.817Z,8.55
2024-02-10T12:27:12.327Z,4.20
2024-02-10T12:29:39.965Z,5.97
2024-02-10T12:32:10.251Z,6.32
2024-02-10T12:34:38.215Z,6.70
2024-02-10T12:37:08.684Z,8.63
2024-02-10T12:39:36.117Z,4.57
2024-02-10T12:42:04.223Z,9.70
2024-02-10T12:44:32.977Z,10.65
2024-02-10T12:47:03.083Z,12.32
2024-02-10T12:49:30.870Z,12.98
2024-02-10T12:51:58.344Z,8.80
2024-02-10T12:54:29.011Z,11.27
2024-02-10T12:56:57.502Z,15.25
2024-02-10T12:59:25.347Z,8.38
2024-02-10T13:01:52.837Z,9.63
2024-02-10T13:04:22.331Z,12.23
2024-02-10T13:06:50.426Z,13.18
2024-02-10T13:09:19.294Z,6.25
2024-02-10T13:11:47.040Z,11.30
2024-02-10T13:14:14.462Z,7.05
2024-02-10T13:16:42.019Z,17.42
2024-02-10T13:19:16.016Z,15.20
2024-02-10T13:21:45.178Z,8.98
2024-02-10T13:24:12.815Z,8.13
2024-02-10T13:26:40.162Z,18.73
2024-02-10T13:29:09.219Z,12.35
2024-02-10T13:31:37.182Z,10.27
2024-02-10T13:34:11.615Z,13.07
2024-02-10T13:36:48.054Z,10.65
2024-02-10T13:39:34.162Z,11.02
2024-02-10T13:42:20.125Z,9.68
2024-02-10T13:45:06.130Z,10.38
2024-02-10T13:47:52.267Z,17.33
2024-02-10T13:50:38.410Z,17.98
2024-02-10T13:53:24.502Z,11.68
2024-02-10T13:56:10.590Z,32.92
2024-02-10T13:58:38.370Z,52.25
2024-02-10T14:01:11.469Z,32.35
2024-02-10T14:03:59.354Z,12.85
2024-02-10T14:06:33.480Z,18.40
2024-02-10T14:09:05.114Z,9.27
2024-02-10T14:11:37.369Z,21.83
2024-02-10T14:14:05.782Z,15.15
2024-02-10T14:16:34.714Z,14.40
2024-02-10T14:19:06.895Z,12.02
2024-02-10T14:21:37.475Z,11.80
2024-02-10T14:24:06.573Z,12.93
2024-02-10T14:26:57.296Z,12.93
2024-02-10T14:29:35.084Z,18.33
2024-02-10T14:32:14.147Z,10.05
2024-02-10T14:35:11.385Z,13.80
2024-02-10T14:37:48.373Z,9.60
2024-02-10T14:40:34.479Z,11.32
2024-02-10T14:43:02.082Z,13.43
2024-02-10T14:45:30.045Z,7.85
2024-02-10T14:47:58.067Z,11.40
2024-02-10T14:50:26.093Z,13.32
2024-02-10T14:52:55.406Z,14.23
2024-02-10T14:55:22.953Z,12.85
2024-02-10T14:57:51.742Z,14.43
2024-02-10T15:00:32.032Z,10.23
2024-02-10T15:03:09.461Z,11.63
2024-02-10T15:05:39.587Z,13.98
2024-02-10T15:08:07.399Z,18.12
2024-02-10T15:10:35.101Z,13.23
2024-02-10T15:13:05.780Z,13.23
2024-02-10T15:15:47.368Z,13.85
2024-02-10T15:18:16.277Z,10.88
2024-02-10T15:20:44.811Z,15.27
2024-02-10T15:23:13.540Z,12.93
2024-02-10T15:25:45.339Z,10.57
2024-02-10T15:28:16.506Z,8.88
2024-02-10T15:30:48.580Z,9.48
2024-02-10T15:33:19.943Z,14.65
2024-02-10T15:35:51.134Z,9.30
2024-02-10T15:38:23.168Z,12.52
2024-02-10T15:40:52.950Z,17.12
2024-02-10T15:43:21.676Z,10.02
2024-02-10T15:45:49.382Z,15.90
2024-02-10T15:48:19.083Z,8.98
2024-02-10T15:50:47.628Z,11.98
2024-02-10T15:53:15.937Z,18.87
2024-02-10T15:55:43.712Z,16.05
2024-02-10T15:58:18.429Z,8.65
2024-02-10T16:00:48.329Z,12.13
2024-02-10T16:03:20.179Z,13.90
2024-02-10T16:05:48.466Z,18.35
2024-02-10T16:08:18.971Z,12.48
2024-02-10T16:10:50.700Z,13.35
2024-02-10T16:13:21.771Z,13.32
2024-02-10T16:15:49.540Z,17.50
2024-02-10T16:18:17.464Z,15.10
2024-02-10T16:20:47.254Z,16.62
2024-02-10T16:23:17.209Z,17.75
2024-02-10T16:25:46.658Z,18.65
2024-02-10T16:28:17.009Z,21.85
2024-02-10T16:30:44.707Z,23.65
2024-02-10T16:33:15.320Z,23.77
2024-02-10T16:35:43.095Z,16.50
2024-02-10T16:38:13.676Z,17.20
2024-02-10T16:40:42.661Z,18.77
2024-02-10T16:43:11.747Z,12.73
2024-02-10T16:45:39.133Z,15.35
2024-02-10T16:48:07.097Z,13.25
2024-02-10T16:50:35.042Z,13.55
2024-02-10T16:53:11.568Z,15.52
2024-02-10T16:55:43.449Z,17.62
2024-02-10T17:00:41.177Z,19.80
2024-02-10T17:03:15.016Z,24.15
2024-02-10T17:05:50.353Z,20.73
2024-02-10T17:08:18.081Z,17.75
2024-02-10T17:10:46.938Z,18.20
2024-02-10T17:13:14.430Z,14.13
2024-02-10T17:15:42.597Z,17.70
2024-02-10T17:18:19.186Z,15.18
2024-02-10T17:20:52.515Z,20.50
2024-02-10T17:23:23.630Z,17.42
2024-02-10T17:25:52.787Z,14.00
2024-02-10T17:28:20.924Z,14.00
2024-02-10T17:30:51.169Z,19.98
2024-02-10T17:33:21.815Z,14.27
2024-02-10T17:35:54.322Z,11.70
2024-02-10T17:38:27.225Z,16.60
2024-02-10T17:40:55.405Z,15.02
2024-02-10T17:43:24.564Z,14.98
2024-02-10T17:45:53.784Z,18.25
2024-02-10T17:48:22.474Z,19.20
2024-02-10T17:50:55.275Z,17.12
2024-02-10T17:53:28.704Z,22.77
2024-02-10T17:56:00.552Z,16.12
2024-02-10T17:58:33.118Z,13.70
2024-02-10T18:01:02.049Z,17.12
2024-02-10T18:03:32.568Z,14.52
2024-02-10T18:06:02.968Z,16.95
2024-02-10T18:08:36.395Z,15.07
2024-02-10T18:11:04.178Z,17.33
2024-02-10T18:13:32.003Z,17.12
2024-02-10T18:15:59.540Z,15.18
2024-02-10T18:18:27.034Z,13.52
2024-02-10T18:20:55.048Z,15.10
2024-02-10T18:23:26.837Z,17.85
2024-02-10T18:25:56.933Z,15.30
2024-02-10T18:28:24.782Z,15.23
2024-02-10T18:30:53.069Z,17.73
2024-02-10T18:33:20.521Z,15.23
2024-02-10T18:35:48.717Z,20.20
2024-02-10T18:38:17.710Z,18.77
2024-02-10T18:40:45.614Z,21.48
2024-02-10T18:43:15.074Z,19.48
2024-02-10T18:45:45.509Z,21.77
2024-02-10T18:48:16.151Z,15.48
2024-02-10T18:50:44.720Z,16.33
2024-02-10T18:53:14.195Z,17.12
2024-02-10T18:55:43.847Z,19.35
2024-02-10T18:58:12.796Z,17.85
2024-02-10T19:00:42.870Z,16.92
2024-02-10T19:03:10.878Z,14.32
2024-02-10T19:05:38.448Z,15.80
2024-02-10T19:08:06.222Z,16.20
2024-02-10T19:10:36.825Z,18.15
2024-02-10T19:13:04.510Z,19.83
2024-02-10T19:15:31.907Z,19.05
2024-02-10T19:17:59.645Z,15.75
2024-02-10T19:20:27.371Z,21.42
2024-02-10T19:22:54.842Z,18.60
2024-02-10T19:25:25.292Z,17.73
2024-02-10T19:27:55.295Z,19.15
2024-02-10T19:30:23.160Z,17.55
2024-02-10T19:32:53.037Z,19.67
2024-02-10T19:35:21.691Z,15.27
2024-02-10T19:37:50.427Z,21.30
2024-02-10T19:40:19.862Z,17.73
2024-02-10T19:42:48.798Z,14.85
2024-02-10T19:45:17.527Z,14.13
2024-02-10T19:47:47.638Z,17.30
2024-02-10T19:50:18.705Z,18.50
2024-02-10T19:52:47.825Z,19.73
2024-02-10T19:55:16.404Z,23.85
2024-02-10T19:57:44.028Z,19.20
2024-02-10T20:00:14.158Z,19.48
2024-02-10T20:02:45.785Z,18.35
2024-02-10T20:05:18.368Z,16.65
2024-02-10T20:07:46.625Z,18.98
2024-02-10T20:10:19.252Z,21.23
2024-02-10T20:12:47.604Z,15.15
2024-02-10T20:15:15.298Z,20.40
2024-02-10T20:17:43.595Z,18.30
2024-02-10T20:20:18.855Z,21.30
2024-02-10T20:22:47.580Z,23.25
2024-02-10T20:25:15.845Z,23.80
2024-02-10T20:27:43.403Z,29.73
2024-02-10T20:30:12.816Z,23.87
2024-02-10T20:32:40.692Z,25.88
2024-02-10T20:35:11.385Z,22.77
2024-02-10T20:37:40.221Z,17.92
2024-02-10T20:40:13.376Z,21.20
2024-02-10T20:42:41.789Z,15.15
2024-02-10T20:45:16.406Z,22.35
2024-02-10T20:47:45.548Z,17.08
2024-02-10T20:50:14.916Z,16.00
2024-02-10T20:52:42.701Z,16.77
2024-02-10T20:55:14.612Z,24.92
2024-02-10T21:00:14.580Z,16.50
2024-02-10T21:02:42.589Z,20.73
2024-02-10T21:05:16.086Z,19.83
2024-02-10T21:07:43.986Z,16.35
2024-02-10T21:10:15.317Z,16.10
2024-02-10T21:12:43.103Z,17.10
2024-02-10T21:15:11.829Z,20.05
2024-02-10T21:17:40.749Z,24.55
2024-02-10T21:20:15.112Z,18.00
2024-02-10T21:22:49.053Z,15.68
2024-02-10T21:25:17.111Z,23.00
2024-02-10T21:27:45.275Z,21.75
2024-02-10T21:30:14.030Z,21.40
2024-02-10T21:32:42.293Z,19.95
2024-02-10T21:35:11.713Z,22.30
2024-02-10T21:37:39.664Z,20.83
2024-02-10T21:40:08.135Z,22.02
2024-02-10T21:42:38.465Z,18.08
2024-02-10T21:45:06.369Z,21.45
2024-02-10T21:47:37.313Z,24.05
2024-02-10T21:50:09.172Z,17.42
2024-02-10T21:52:38.119Z,22.50
2024-02-10T21:55:06.502Z,21.10
2024-02-10T21:57:37.089Z,16.05
2024-02-10T22:00:11.578Z,13.27
2024-02-10T22:02:39.989Z,18.62
2024-02-10T22:05:08.456Z,15.55
2024-02-10T22:07:37.009Z,15.73
2024-02-10T22:10:05.247Z,15.45
2024-02-10T22:12:32.655Z,23.52
2024-02-10T22:15:00.309Z,19.55
2024-02-10T22:17:29.579Z,17.48
2024-02-10T22:19:58.040Z,20.42
2024-02-10T22:22:25.438Z,15.18
2024-02-10T22:24:53.132Z,19.85
2024-02-10T22:27:20.529Z,15.52
2024-02-10T22:29:48.141Z,15.02
2024-02-10T22:32:15.789Z,19.12
2024-02-10T22:34:43.406Z,20.40
2024-02-10T22:37:13.353Z,23.40
2024-02-10T22:39:41.506Z,22.48
2024-02-10T22:42:13.870Z,17.98
2024-02-10T22:44:43.149Z,16.23
2024-02-10T22:47:16.716Z,19.77
2024-02-10T22:49:48.539Z,16.08
2024-02-10T22:52:23.111Z,16.30
2024-02-10T22:54:54.844Z,21.33
2024-02-10T22:57:22.931Z,17.87
2024-02-10T22:59:50.962Z,19.48
2024-02-10T23:02:18.476Z,22.35
2024-02-10T23:04:47.215Z,24.58
2024-02-10T23:07:19.916Z,24.92
2024-02-10T23:09:47.289Z,20.17
2024-02-10T23:12:22.368Z,16.45
2024-02-10T23:14:54.233Z,23.33
2024-02-10T23:17:22.306Z,22.92
2024-02-10T23:19:58.462Z,21.25
2024-02-10T23:22:32.373Z,21.73
2024-02-10T23:24:59.832Z,16.95
2024-02-10T23:27:28.089Z,16.60
2024-02-10T23:29:58.493Z,14.90
2024-02-10T23:32:26.870Z,19.17
2024-02-10T23:34:54.985Z,17.95
2024-02-10T23:37:29.827Z,16.83
2024-02-10T23:39:58.080Z,24.70
2024-02-10T23:42:25.895Z,16.55
2024-02-10T23:44:57.997Z,20.33
2024-02-10T23:49:57.471Z,17.65
2024-02-10T23:52:25.978Z,19.87
2024-02-10T23:54:55.980Z,17.12
2024-02-10T23:57:23.789Z,18.15
2024-02-10T23:59:51.295Z,12.68
